sensor_id;sensor_type;location;lat;lon;timestamp;P1;P2;P0
49434;PMS5003;35306;53.458;-1.990;2022-07-10T00:01:18;6;6;
49434;PMS5003;35306;53.458;-1.990;2022-07-10T00:03:45;6;6;
49434;PMS5003;35306;53.458;-1.990;2022-07-10T00:06:14;5;5;
49434;PMS5003;35306;53.458;-1.990;2022-07-10T00:08:41;3;2;
49434;PMS5003;35306;53.458;-1.990;2022-07-10T00:11:09;5;5;
49434;PMS5003;35306;53.458;-1.990;2022-07-10T00:13:37;5;5;
49434;PMS5003;35306;53.458;-1.990;2022-07-10T00:16:04;9;8;
49434;PMS5003;35306;53.458;-1.990;2022-07-10T00:18:31;8;6;
49434;PMS5003;35306;53.458;-1.990;2022-07-10T00:20:59;8;7;
49434;PMS5003;35306;53.458;-1.990;2022-07-10T00:23:27;5;5;
49434;PMS5003;35306;53.458;-1.990;2022-07-10T00:25:55;6;6;
49434;PMS5003;35306;53.458;-1.990;2022-07-10T00:28:22;6;6;
49434;PMS5003;35306;53.458;-1.990;2022-07-10T00:30:50;5;5;
49434;PMS5003;35306;53.458;-1.990;2022-07-10T00:33:17;10;9;
49434;PMS5003;35306;53.458;-1.990;2022-07-10T00:35:45;6;6;
49434;PMS5003;35306;53.458;-1.990;2022-07-10T00:38:12;7;7;
49434;PMS5003;35306;53.458;-1.990;2022-07-10T00:40:40;6;5;
49434;PMS5003;35306;53.458;-1.990;2022-07-10T00:43:08;6;6;
49434;PMS5003;35306;53.458;-1.990;2022-07-10T00:45:35;5;5;
49434;PMS5003;35306;53.458;-1.990;2022-07-10T00:48:03;5;5;
49434;PMS5003;35306;53.458;-1.990;2022-07-10T00:50:31;6;6;
49434;PMS5003;35306;53.458;-1.990;2022-07-10T00:53:00;5;5;
49434;PMS5003;35306;53.458;-1.990;2022-07-10T00:55:27;6;6;
49434;PMS5003;35306;53.458;-1.990;2022-07-10T00:57:55;8;7;
49434;PMS5003;35306;53.458;-1.990;2022-07-10T01:00:24;7;7;
49434;PMS5003;35306;53.458;-1.990;2022-07-10T01:02:52;7;6;
49434;PMS5003;35306;53.458;-1.990;2022-07-10T01:05:21;5;5;
49434;PMS5003;35306;53.458;-1.990;2022-07-10T01:07:49;6;4;
49434;PMS5003;35306;53.458;-1.990;2022-07-10T01:10:16;6;6;
49434;PMS5003;35306;53.458;-1.990;2022-07-10T01:12:44;5;5;
49434;PMS5003;35306;53.458;-1.990;2022-07-10T01:15:12;7;5;
49434;PMS5003;35306;53.458;-1.990;2022-07-10T01:17:39;5;3;
49434;PMS5003;35306;53.458;-1.990;2022-07-10T01:20:07;7;5;
49434;PMS5003;35306;53.458;-1.990;2022-07-10T01:22:36;5;5;
49434;PMS5003;35306;53.458;-1.990;2022-07-10T01:25:04;7;7;
49434;PMS5003;35306;53.458;-1.990;2022-07-10T01:27:32;5;5;
49434;PMS5003;35306;53.458;-1.990;2022-07-10T01:30:02;4;4;
49434;PMS5003;35306;53.458;-1.990;2022-07-10T01:32:36;4;4;
49434;PMS5003;35306;53.458;-1.990;2022-07-10T01:35:05;6;6;
49434;PMS5003;35306;53.458;-1.990;2022-07-10T01:37:33;7;7;
49434;PMS5003;35306;53.458;-1.990;2022-07-10T01:40:01;9;9;
49434;PMS5003;35306;53.458;-1.990;2022-07-10T01:42:28;7;7;
49434;PMS5003;35306;53.458;-1.990;2022-07-10T01:44:57;5;5;
49434;PMS5003;35306;53.458;-1.990;2022-07-10T01:47:25;7;7;
49434;PMS5003;35306;53.458;-1.990;2022-07-10T01:49:53;6;5;
49434;PMS5003;35306;53.458;-1.990;2022-07-10T01:52:21;7;7;
49434;PMS5003;35306;53.458;-1.990;2022-07-10T01:54:49;10;6;
49434;PMS5003;35306;53.458;-1.990;2022-07-10T01:57:17;7;7;
49434;PMS5003;35306;53.458;-1.990;2022-07-10T01:59:46;6;6;
49434;PMS5003;35306;53.458;-1.990;2022-07-10T02:02:13;6;5;
49434;PMS5003;35306;53.458;-1.990;2022-07-10T02:04:42;6;6;
49434;PMS5003;35306;53.458;-1.990;2022-07-10T02:07:09;7;5;
49434;PMS5003;35306;53.458;-1.990;2022-07-10T02:09:38;4;4;
49434;PMS5003;35306;53.458;-1.990;2022-07-10T02:12:08;6;6;
49434;PMS5003;35306;53.458;-1.990;2022-07-10T02:14:40;5;5;
49434;PMS5003;35306;53.458;-1.990;2022-07-10T02:17:08;7;7;
49434;PMS5003;35306;53.458;-1.990;2022-07-10T02:19:36;5;4;
49434;PMS5003;35306;53.458;-1.990;2022-07-10T02:22:04;6;5;
49434;PMS5003;35306;53.458;-1.990;2022-07-10T02:24:32;5;5;
49434;PMS5003;35306;53.458;-1.990;2022-07-10T02:27:01;5;5;
49434;PMS5003;35306;53.458;-1.990;2022-07-10T02:29:29;7;4;
49434;PMS5003;35306;53.458;-1.990;2022-07-10T02:31:55;5;5;
49434;PMS5003;35306;53.458;-1.990;2022-07-10T02:34:23;6;5;
49434;PMS5003;35306;53.458;-1.990;2022-07-10T02:36:51;6;5;
49434;PMS5003;35306;53.458;-1.990;2022-07-10T02:39:18;6;6;
49434;PMS5003;35306;53.458;-1.990;2022-07-10T02:41:46;5;5;
49434;PMS5003;35306;53.458;-1.990;2022-07-10T02:44:14;5;5;
49434;PMS5003;35306;53.458;-1.990;2022-07-10T02:46:41;5;5;
49434;PMS5003;35306;53.458;-1.990;2022-07-10T02:49:09;6;6;
49434;PMS5003;35306;53.458;-1.990;2022-07-10T02:51:36;6;6;
49434;PMS5003;35306;53.458;-1.990;2022-07-10T02:54:04;6;6;
49434;PMS5003;35306;53.458;-1.990;2022-07-10T02:56:31;6;6;
49434;PMS5003;35306;53.458;-1.990;2022-07-10T02:58:59;5;5;
49434;PMS5003;35306;53.458;-1.990;2022-07-10T03:01:27;3;3;
49434;PMS5003;35306;53.458;-1.990;2022-07-10T03:03:54;7;5;
49434;PMS5003;35306;53.458;-1.990;2022-07-10T03:06:22;4;3;
49434;PMS5003;35306;53.458;-1.990;2022-07-10T03:08:49;7;6;
49434;PMS5003;35306;53.458;-1.990;2022-07-10T03:11:17;9;7;
49434;PMS5003;35306;53.458;-1.990;2022-07-10T03:13:45;7;5;
49434;PMS5003;35306;53.458;-1.990;2022-07-10T03:16:12;7;7;
49434;PMS5003;35306;53.458;-1.990;2022-07-10T03:18:40;7;7;
49434;PMS5003;35306;53.458;-1.990;2022-07-10T03:21:07;6;6;
49434;PMS5003;35306;53.458;-1.990;2022-07-10T03:23:35;7;7;
49434;PMS5003;35306;53.458;-1.990;2022-07-10T03:26:03;6;4;
49434;PMS5003;35306;53.458;-1.990;2022-07-10T03:28:30;8;8;
49434;PMS5003;35306;53.458;-1.990;2022-07-10T03:30:58;5;5;
49434;PMS5003;35306;53.458;-1.990;2022-07-10T03:33:26;7;7;
49434;PMS5003;35306;53.458;-1.990;2022-07-10T03:35:54;8;8;
49434;PMS5003;35306;53.458;-1.990;2022-07-10T03:38:22;10;8;
49434;PMS5003;35306;53.458;-1.990;2022-07-10T03:40:49;6;6;
49434;PMS5003;35306;53.458;-1.990;2022-07-10T03:43:17;7;7;
49434;PMS5003;35306;53.458;-1.990;2022-07-10T03:45:44;6;6;
49434;PMS5003;35306;53.458;-1.990;2022-07-10T03:48:12;8;6;
49434;PMS5003;35306;53.458;-1.990;2022-07-10T03:50:40;6;6;
49434;PMS5003;35306;53.458;-1.990;2022-07-10T03:53:07;6;6;
49434;PMS5003;35306;53.458;-1.990;2022-07-10T03:55:35;7;5;
49434;PMS5003;35306;53.458;-1.990;2022-07-10T03:58:03;5;5;
49434;PMS5003;35306;53.458;-1.990;2022-07-10T04:00:30;7;6;
49434;PMS5003;35306;53.458;-1.990;2022-07-10T04:02:58;10;8;
49434;PMS5003;35306;53.458;-1.990;2022-07-10T04:05:27;6;6;
49434;PMS5003;35306;53.458;-1.990;2022-07-10T04:07:55;7;7;
49434;PMS5003;35306;53.458;-1.990;2022-07-10T04:10:24;9;9;
49434;PMS5003;35306;53.458;-1.990;2022-07-10T04:12:53;8;6;
49434;PMS5003;35306;53.458;-1.990;2022-07-10T04:15:21;7;7;
49434;PMS5003;35306;53.458;-1.990;2022-07-10T04:17:48;6;6;
49434;PMS5003;35306;53.458;-1.990;2022-07-10T04:20:16;7;6;
49434;PMS5003;35306;53.458;-1.990;2022-07-10T04:22:44;7;7;
49434;PMS5003;35306;53.458;-1.990;2022-07-10T04:25:12;7;6;
49434;PMS5003;35306;53.458;-1.990;2022-07-10T04:27:40;6;5;
49434;PMS5003;35306;53.458;-1.990;2022-07-10T04:30:08;7;6;
49434;PMS5003;35306;53.458;-1.990;2022-07-10T04:32:36;7;7;
49434;PMS5003;35306;53.458;-1.990;2022-07-10T04:35:04;4;3;
49434;PMS5003;35306;53.458;-1.990;2022-07-10T04:37:32;6;6;
49434;PMS5003;35306;53.458;-1.990;2022-07-10T04:40:00;4;4;
49434;PMS5003;35306;53.458;-1.990;2022-07-10T04:42:27;6;6;
49434;PMS5003;35306;53.458;-1.990;2022-07-10T04:44:55;6;5;
49434;PMS5003;35306;53.458;-1.990;2022-07-10T04:47:22;8;6;
49434;PMS5003;35306;53.458;-1.990;2022-07-10T04:49:50;6;6;
49434;PMS5003;35306;53.458;-1.990;2022-07-10T04:52:18;5;5;
49434;PMS5003;35306;53.458;-1.990;2022-07-10T04:54:45;3;3;
49434;PMS5003;35306;53.458;-1.990;2022-07-10T04:57:13;6;5;
49434;PMS5003;35306;53.458;-1.990;2022-07-10T04:59:40;5;4;
49434;PMS5003;35306;53.458;-1.990;2022-07-10T05:02:08;5;4;
49434;PMS5003;35306;53.458;-1.990;2022-07-10T05:04:36;6;6;
49434;PMS5003;35306;53.458;-1.990;2022-07-10T05:07:03;5;5;
49434;PMS5003;35306;53.458;-1.990;2022-07-10T05:09:31;3;3;
49434;PMS5003;35306;53.458;-1.990;2022-07-10T05:11:58;4;4;
49434;PMS5003;35306;53.458;-1.990;2022-07-10T05:14:26;5;5;
49434;PMS5003;35306;53.458;-1.990;2022-07-10T05:16:54;4;4;
49434;PMS5003;35306;53.458;-1.990;2022-07-10T05:19:21;4;3;
49434;PMS5003;35306;53.458;-1.990;2022-07-10T05:21:49;2;2;
49434;PMS5003;35306;53.458;-1.990;2022-07-10T05:24:17;2;2;
49434;PMS5003;35306;53.458;-1.990;2022-07-10T05:26:44;3;3;
49434;PMS5003;35306;53.458;-1.990;2022-07-10T05:29:12;4;2;
49434;PMS5003;35306;53.458;-1.990;2022-07-10T05:31:39;4;4;
49434;PMS5003;35306;53.458;-1.990;2022-07-10T05:34:07;3;3;
49434;PMS5003;35306;53.458;-1.990;2022-07-10T05:36:35;3;3;
49434;PMS5003;35306;53.458;-1.990;2022-07-10T05:39:02;3;3;
49434;PMS5003;35306;53.458;-1.990;2022-07-10T05:41:30;2;2;
49434;PMS5003;35306;53.458;-1.990;2022-07-10T05:43:57;3;3;
49434;PMS5003;35306;53.458;-1.990;2022-07-10T05:46:25;3;3;
49434;PMS5003;35306;53.458;-1.990;2022-07-10T05:48:53;2;2;
49434;PMS5003;35306;53.458;-1.990;2022-07-10T05:51:21;4;3;
49434;PMS5003;35306;53.458;-1.990;2022-07-10T05:53:48;5;3;
49434;PMS5003;35306;53.458;-1.990;2022-07-10T05:56:16;4;4;
49434;PMS5003;35306;53.458;-1.990;2022-07-10T05:58:43;3;2;
49434;PMS5003;35306;53.458;-1.990;2022-07-10T06:01:11;2;2;
49434;PMS5003;35306;53.458;-1.990;2022-07-10T06:03:39;5;2;
49434;PMS5003;35306;53.458;-1.990;2022-07-10T06:06:06;3;3;
49434;PMS5003;35306;53.458;-1.990;2022-07-10T06:08:34;4;2;
49434;PMS5003;35306;53.458;-1.990;2022-07-10T06:11:01;4;4;
49434;PMS5003;35306;53.458;-1.990;2022-07-10T06:13:29;4;4;
49434;PMS5003;35306;53.458;-1.990;2022-07-10T06:15:57;3;3;
49434;PMS5003;35306;53.458;-1.990;2022-07-10T06:18:24;3;3;
49434;PMS5003;35306;53.458;-1.990;2022-07-10T06:20:52;0;0;
49434;PMS5003;35306;53.458;-1.990;2022-07-10T06:23:20;1;1;
49434;PMS5003;35306;53.458;-1.990;2022-07-10T06:25:48;3;2;
49434;PMS5003;35306;53.458;-1.990;2022-07-10T06:28:15;0;0;
49434;PMS5003;35306;53.458;-1.990;2022-07-10T06:30:43;1;1;
49434;PMS5003;35306;53.458;-1.990;2022-07-10T06:33:11;3;3;
49434;PMS5003;35306;53.458;-1.990;2022-07-10T06:35:38;6;3;
49434;PMS5003;35306;53.458;-1.990;2022-07-10T06:38:06;4;2;
49434;PMS5003;35306;53.458;-1.990;2022-07-10T06:40:35;2;2;
49434;PMS5003;35306;53.458;-1.990;2022-07-10T06:43:04;4;4;
49434;PMS5003;35306;53.458;-1.990;2022-07-10T06:45:31;2;2;
49434;PMS5003;35306;53.458;-1.990;2022-07-10T06:47:59;3;3;
49434;PMS5003;35306;53.458;-1.990;2022-07-10T06:50:27;5;3;
49434;PMS5003;35306;53.458;-1.990;2022-07-10T06:52:56;2;2;
49434;PMS5003;35306;53.458;-1.990;2022-07-10T06:55:23;3;3;
49434;PMS5003;35306;53.458;-1.990;2022-07-10T06:57:52;4;2;
49434;PMS5003;35306;53.458;-1.990;2022-07-10T07:00:20;2;2;
49434;PMS5003;35306;53.458;-1.990;2022-07-10T07:02:54;2;2;
49434;PMS5003;35306;53.458;-1.990;2022-07-10T07:05:21;3;3;
49434;PMS5003;35306;53.458;-1.990;2022-07-10T07:07:49;2;2;
49434;PMS5003;35306;53.458;-1.990;2022-07-10T07:10:16;3;3;
49434;PMS5003;35306;53.458;-1.990;2022-07-10T07:12:44;2;2;
49434;PMS5003;35306;53.458;-1.990;2022-07-10T07:15:13;3;3;
49434;PMS5003;35306;53.458;-1.990;2022-07-10T07:17:41;6;3;
49434;PMS5003;35306;53.458;-1.990;2022-07-10T07:20:09;3;3;
49434;PMS5003;35306;53.458;-1.990;2022-07-10T07:22:37;5;5;
49434;PMS5003;35306;53.458;-1.990;2022-07-10T07:25:05;3;3;
49434;PMS5003;35306;53.458;-1.990;2022-07-10T07:27:33;2;2;
49434;PMS5003;35306;53.458;-1.990;2022-07-10T07:30:03;3;3;
49434;PMS5003;35306;53.458;-1.990;2022-07-10T07:32:31;4;2;
49434;PMS5003;35306;53.458;-1.990;2022-07-10T07:34:59;2;2;
49434;PMS5003;35306;53.458;-1.990;2022-07-10T07:37:42;3;3;
49434;PMS5003;35306;53.458;-1.990;2022-07-10T07:40:11;2;2;
49434;PMS5003;35306;53.458;-1.990;2022-07-10T07:42:41;3;3;
49434;PMS5003;35306;53.458;-1.990;2022-07-10T07:45:09;4;2;
49434;PMS5003;35306;53.458;-1.990;2022-07-10T07:47:44;3;3;
49434;PMS5003;35306;53.458;-1.990;2022-07-10T07:50:14;4;4;
49434;PMS5003;35306;53.458;-1.990;2022-07-10T07:52:42;3;3;
49434;PMS5003;35306;53.458;-1.990;2022-07-10T07:55:11;3;3;
49434;PMS5003;35306;53.458;-1.990;2022-07-10T07:57:39;2;2;
49434;PMS5003;35306;53.458;-1.990;2022-07-10T08:00:09;6;4;
49434;PMS5003;35306;53.458;-1.990;2022-07-10T08:02:39;5;4;
49434;PMS5003;35306;53.458;-1.990;2022-07-10T08:05:07;3;3;
49434;PMS5003;35306;53.458;-1.990;2022-07-10T08:07:36;4;4;
49434;PMS5003;35306;53.458;-1.990;2022-07-10T08:10:04;3;2;
49434;PMS5003;35306;53.458;-1.990;2022-07-10T08:12:35;3;3;
49434;PMS5003;35306;53.458;-1.990;2022-07-10T08:15:03;3;3;
49434;PMS5003;35306;53.458;-1.990;2022-07-10T08:17:31;5;3;
49434;PMS5003;35306;53.458;-1.990;2022-07-10T08:19:59;1;1;
49434;PMS5003;35306;53.458;-1.990;2022-07-10T08:22:26;4;4;
49434;PMS5003;35306;53.458;-1.990;2022-07-10T08:24:54;4;4;
49434;PMS5003;35306;53.458;-1.990;2022-07-10T08:27:22;2;2;
49434;PMS5003;35306;53.458;-1.990;2022-07-10T08:29:49;3;3;
49434;PMS5003;35306;53.458;-1.990;2022-07-10T08:32:17;5;4;
49434;PMS5003;35306;53.458;-1.990;2022-07-10T08:34:44;2;2;
49434;PMS5003;35306;53.458;-1.990;2022-07-10T08:37:12;2;2;
49434;PMS5003;35306;53.458;-1.990;2022-07-10T08:39:39;3;3;
49434;PMS5003;35306;53.458;-1.990;2022-07-10T08:42:08;3;3;
49434;PMS5003;35306;53.458;-1.990;2022-07-10T08:44:36;3;3;
49434;PMS5003;35306;53.458;-1.990;2022-07-10T08:47:04;2;2;
49434;PMS5003;35306;53.458;-1.990;2022-07-10T08:49:32;2;2;
49434;PMS5003;35306;53.458;-1.990;2022-07-10T08:52:01;6;5;
49434;PMS5003;35306;53.458;-1.990;2022-07-10T08:54:30;4;4;
49434;PMS5003;35306;53.458;-1.990;2022-07-10T08:56:59;5;5;
49434;PMS5003;35306;53.458;-1.990;2022-07-10T08:59:28;3;3;
49434;PMS5003;35306;53.458;-1.990;2022-07-10T09:01:56;3;3;
49434;PMS5003;35306;53.458;-1.990;2022-07-10T09:04:24;3;3;
49434;PMS5003;35306;53.458;-1.990;2022-07-10T09:06:54;6;4;
49434;PMS5003;35306;53.458;-1.990;2022-07-10T09:09:22;3;3;
49434;PMS5003;35306;53.458;-1.990;2022-07-10T09:11:54;2;2;
49434;PMS5003;35306;53.458;-1.990;2022-07-10T09:14:22;2;2;
49434;PMS5003;35306;53.458;-1.990;2022-07-10T09:16:51;3;3;
49434;PMS5003;35306;53.458;-1.990;2022-07-10T09:19:19;2;2;
49434;PMS5003;35306;53.458;-1.990;2022-07-10T09:21:49;4;4;
49434;PMS5003;35306;53.458;-1.990;2022-07-10T09:24:19;3;3;
49434;PMS5003;35306;53.458;-1.990;2022-07-10T09:26:57;3;3;
49434;PMS5003;35306;53.458;-1.990;2022-07-10T09:29:25;3;3;
49434;PMS5003;35306;53.458;-1.990;2022-07-10T09:31:58;4;3;
49434;PMS5003;35306;53.458;-1.990;2022-07-10T09:34:43;5;5;
49434;PMS5003;35306;53.458;-1.990;2022-07-10T09:37:20;1;1;
49434;PMS5003;35306;53.458;-1.990;2022-07-10T09:39:53;3;3;
49434;PMS5003;35306;53.458;-1.990;2022-07-10T09:42:25;2;2;
49434;PMS5003;35306;53.458;-1.990;2022-07-10T09:45:27;2;2;
49434;PMS5003;35306;53.458;-1.990;2022-07-10T09:47:56;2;1;
49434;PMS5003;35306;53.458;-1.990;2022-07-10T09:50:25;2;2;
49434;PMS5003;35306;53.458;-1.990;2022-07-10T09:52:55;5;5;
49434;PMS5003;35306;53.458;-1.990;2022-07-10T09:55:25;2;2;
49434;PMS5003;35306;53.458;-1.990;2022-07-10T09:57:56;3;3;
49434;PMS5003;35306;53.458;-1.990;2022-07-10T10:00:24;3;3;
49434;PMS5003;35306;53.458;-1.990;2022-07-10T10:02:55;3;3;
49434;PMS5003;35306;53.458;-1.990;2022-07-10T10:05:28;2;2;
49434;PMS5003;35306;53.458;-1.990;2022-07-10T10:08:05;2;2;
49434;PMS5003;35306;53.458;-1.990;2022-07-10T10:10:43;3;3;
49434;PMS5003;35306;53.458;-1.990;2022-07-10T10:13:15;5;5;
49434;PMS5003;35306;53.458;-1.990;2022-07-10T10:15:44;3;2;
49434;PMS5003;35306;53.458;-1.990;2022-07-10T10:18:16;5;5;
49434;PMS5003;35306;53.458;-1.990;2022-07-10T10:20:44;1;1;
49434;PMS5003;35306;53.458;-1.990;2022-07-10T10:23:13;3;3;
49434;PMS5003;35306;53.458;-1.990;2022-07-10T10:25:41;2;2;
49434;PMS5003;35306;53.458;-1.990;2022-07-10T10:28:09;5;3;
49434;PMS5003;35306;53.458;-1.990;2022-07-10T10:30:39;2;2;
49434;PMS5003;35306;53.458;-1.990;2022-07-10T10:33:43;3;3;
49434;PMS5003;35306;53.458;-1.990;2022-07-10T10:36:11;1;1;
49434;PMS5003;35306;53.458;-1.990;2022-07-10T10:39:13;4;4;
49434;PMS5003;35306;53.458;-1.990;2022-07-10T10:41:44;3;3;
49434;PMS5003;35306;53.458;-1.990;2022-07-10T10:44:22;4;4;
49434;PMS5003;35306;53.458;-1.990;2022-07-10T10:46:56;3;3;
49434;PMS5003;35306;53.458;-1.990;2022-07-10T10:49:50;2;2;
49434;PMS5003;35306;53.458;-1.990;2022-07-10T10:52:20;5;3;
49434;PMS5003;35306;53.458;-1.990;2022-07-10T10:55:24;4;3;
49434;PMS5003;35306;53.458;-1.990;2022-07-10T10:57:52;3;3;
49434;PMS5003;35306;53.458;-1.990;2022-07-10T11:00:35;3;3;
49434;PMS5003;35306;53.458;-1.990;2022-07-10T11:03:19;3;3;
49434;PMS5003;35306;53.458;-1.990;2022-07-10T11:05:49;3;2;
49434;PMS5003;35306;53.458;-1.990;2022-07-10T11:08:50;3;2;
49434;PMS5003;35306;53.458;-1.990;2022-07-10T11:11:58;3;3;
49434;PMS5003;35306;53.458;-1.990;2022-07-10T11:14:27;3;3;
49434;PMS5003;35306;53.458;-1.990;2022-07-10T11:16:55;4;3;
49434;PMS5003;35306;53.458;-1.990;2022-07-10T11:19:24;2;2;
49434;PMS5003;35306;53.458;-1.990;2022-07-10T11:21:55;3;3;
49434;PMS5003;35306;53.458;-1.990;2022-07-10T11:24:37;3;3;
49434;PMS5003;35306;53.458;-1.990;2022-07-10T11:29:57;3;3;
49434;PMS5003;35306;53.458;-1.990;2022-07-10T11:32:25;2;2;
49434;PMS5003;35306;53.458;-1.990;2022-07-10T11:34:52;5;5;
49434;PMS5003;35306;53.458;-1.990;2022-07-10T11:37:21;2;2;
49434;PMS5003;35306;53.458;-1.990;2022-07-10T11:39:48;4;4;
49434;PMS5003;35306;53.458;-1.990;2022-07-10T11:42:16;3;3;
49434;PMS5003;35306;53.458;-1.990;2022-07-10T11:44:43;4;4;
49434;PMS5003;35306;53.458;-1.990;2022-07-10T11:47:11;3;3;
49434;PMS5003;35306;53.458;-1.990;2022-07-10T11:49:44;2;2;
49434;PMS5003;35306;53.458;-1.990;2022-07-10T11:52:12;3;3;
49434;PMS5003;35306;53.458;-1.990;2022-07-10T11:54:40;2;2;
49434;PMS5003;35306;53.458;-1.990;2022-07-10T11:57:07;1;1;
49434;PMS5003;35306;53.458;-1.990;2022-07-10T11:59:35;3;3;
49434;PMS5003;35306;53.458;-1.990;2022-07-10T12:02:03;3;2;
49434;PMS5003;35306;53.458;-1.990;2022-07-10T12:04:31;3;3;
49434;PMS5003;35306;53.458;-1.990;2022-07-10T12:06:58;1;1;
49434;PMS5003;35306;53.458;-1.990;2022-07-10T12:09:26;2;2;
49434;PMS5003;35306;53.458;-1.990;2022-07-10T12:11:59;2;2;
49434;PMS5003;35306;53.458;-1.990;2022-07-10T12:14:27;2;2;
49434;PMS5003;35306;53.458;-1.990;2022-07-10T12:16:55;3;3;
49434;PMS5003;35306;53.458;-1.990;2022-07-10T12:19:24;2;2;
49434;PMS5003;35306;53.458;-1.990;2022-07-10T12:21:58;3;3;
49434;PMS5003;35306;53.458;-1.990;2022-07-10T12:24:26;2;2;
49434;PMS5003;35306;53.458;-1.990;2022-07-10T12:26:54;1;1;
49434;PMS5003;35306;53.458;-1.990;2022-07-10T12:29:23;1;1;
49434;PMS5003;35306;53.458;-1.990;2022-07-10T12:31:51;2;2;
49434;PMS5003;35306;53.458;-1.990;2022-07-10T12:34:19;1;1;
49434;PMS5003;35306;53.458;-1.990;2022-07-10T12:37:05;1;1;
49434;PMS5003;35306;53.458;-1.990;2022-07-10T12:39:35;1;1;
49434;PMS5003;35306;53.458;-1.990;2022-07-10T12:42:05;1;1;
49434;PMS5003;35306;53.458;-1.990;2022-07-10T12:44:35;1;1;
49434;PMS5003;35306;53.458;-1.990;2022-07-10T12:47:04;0;0;
49434;PMS5003;35306;53.458;-1.990;2022-07-10T12:49:46;0;0;
49434;PMS5003;35306;53.458;-1.990;2022-07-10T12:52:19;2;2;
49434;PMS5003;35306;53.458;-1.990;2022-07-10T12:54:46;2;2;
49434;PMS5003;35306;53.458;-1.990;2022-07-10T12:57:14;0;0;
49434;PMS5003;35306;53.458;-1.990;2022-07-10T12:59:42;3;2;
49434;PMS5003;35306;53.458;-1.990;2022-07-10T13:02:17;0;0;
49434;PMS5003;35306;53.458;-1.990;2022-07-10T13:05:03;0;0;
49434;PMS5003;35306;53.458;-1.990;2022-07-10T13:07:31;1;1;
49434;PMS5003;35306;53.458;-1.990;2022-07-10T13:09:58;1;1;
49434;PMS5003;35306;53.458;-1.990;2022-07-10T13:12:27;1;1;
49434;PMS5003;35306;53.458;-1.990;2022-07-10T13:14:55;1;1;
49434;PMS5003;35306;53.458;-1.990;2022-07-10T13:17:23;1;1;
49434;PMS5003;35306;53.458;-1.990;2022-07-10T13:19:50;3;0;
49434;PMS5003;35306;53.458;-1.990;2022-07-10T13:22:18;3;3;
49434;PMS5003;35306;53.458;-1.990;2022-07-10T13:24:45;0;0;
49434;PMS5003;35306;53.458;-1.990;2022-07-10T13:27:13;1;1;
49434;PMS5003;35306;53.458;-1.990;2022-07-10T13:29:40;0;0;
49434;PMS5003;35306;53.458;-1.990;2022-07-10T13:32:08;1;1;
49434;PMS5003;35306;53.458;-1.990;2022-07-10T13:34:35;1;1;
49434;PMS5003;35306;53.458;-1.990;2022-07-10T13:37:03;2;2;
49434;PMS5003;35306;53.458;-1.990;2022-07-10T13:39:31;2;2;
49434;PMS5003;35306;53.458;-1.990;2022-07-10T13:41:58;2;2;
49434;PMS5003;35306;53.458;-1.990;2022-07-10T13:44:26;2;2;
49434;PMS5003;35306;53.458;-1.990;2022-07-10T13:46:55;1;1;
49434;PMS5003;35306;53.458;-1.990;2022-07-10T13:49:23;2;2;
49434;PMS5003;35306;53.458;-1.990;2022-07-10T13:51:50;0;0;
49434;PMS5003;35306;53.458;-1.990;2022-07-10T13:54:18;2;2;
49434;PMS5003;35306;53.458;-1.990;2022-07-10T13:56:45;1;1;
49434;PMS5003;35306;53.458;-1.990;2022-07-10T13:59:13;2;1;
49434;PMS5003;35306;53.458;-1.990;2022-07-10T14:01:41;2;2;
49434;PMS5003;35306;53.458;-1.990;2022-07-10T14:04:08;1;1;
49434;PMS5003;35306;53.458;-1.990;2022-07-10T14:06:36;2;2;
49434;PMS5003;35306;53.458;-1.990;2022-07-10T14:09:03;1;1;
49434;PMS5003;35306;53.458;-1.990;2022-07-10T14:11:31;1;1;
49434;PMS5003;35306;53.458;-1.990;2022-07-10T14:13:58;1;1;
49434;PMS5003;35306;53.458;-1.990;2022-07-10T14:16:27;3;3;
49434;PMS5003;35306;53.458;-1.990;2022-07-10T14:18:55;2;1;
49434;PMS5003;35306;53.458;-1.990;2022-07-10T14:21:22;1;1;
49434;PMS5003;35306;53.458;-1.990;2022-07-10T14:23:50;0;0;
49434;PMS5003;35306;53.458;-1.990;2022-07-10T14:26:17;0;0;
49434;PMS5003;35306;53.458;-1.990;2022-07-10T14:28:45;1;1;
49434;PMS5003;35306;53.458;-1.990;2022-07-10T14:31:12;1;1;
49434;PMS5003;35306;53.458;-1.990;2022-07-10T14:33:40;2;2;
49434;PMS5003;35306;53.458;-1.990;2022-07-10T14:36:08;1;1;
49434;PMS5003;35306;53.458;-1.990;2022-07-10T14:38:35;1;1;
49434;PMS5003;35306;53.458;-1.990;2022-07-10T14:41:03;1;1;
49434;PMS5003;35306;53.458;-1.990;2022-07-10T14:43:30;3;1;
49434;PMS5003;35306;53.458;-1.990;2022-07-10T14:45:58;1;1;
49434;PMS5003;35306;53.458;-1.990;2022-07-10T14:48:30;2;2;
49434;PMS5003;35306;53.458;-1.990;2022-07-10T14:50:58;0;0;
49434;PMS5003;35306;53.458;-1.990;2022-07-10T14:53:26;2;2;
49434;PMS5003;35306;53.458;-1.990;2022-07-10T14:55:54;1;1;
49434;PMS5003;35306;53.458;-1.990;2022-07-10T14:58:22;1;1;
49434;PMS5003;35306;53.458;-1.990;2022-07-10T15:00:49;2;2;
49434;PMS5003;35306;53.458;-1.990;2022-07-10T15:03:17;1;1;
49434;PMS5003;35306;53.458;-1.990;2022-07-10T15:05:44;0;0;
49434;PMS5003;35306;53.458;-1.990;2022-07-10T15:08:12;1;1;
49434;PMS5003;35306;53.458;-1.990;2022-07-10T15:10:39;0;0;
49434;PMS5003;35306;53.458;-1.990;2022-07-10T15:13:07;1;1;
49434;PMS5003;35306;53.458;-1.990;2022-07-10T15:15:35;1;1;
49434;PMS5003;35306;53.458;-1.990;2022-07-10T15:18:02;2;2;
49434;PMS5003;35306;53.458;-1.990;2022-07-10T15:20:30;0;0;
49434;PMS5003;35306;53.458;-1.990;2022-07-10T15:22:58;1;1;
49434;PMS5003;35306;53.458;-1.990;2022-07-10T15:25:25;0;0;
49434;PMS5003;35306;53.458;-1.990;2022-07-10T15:27:53;1;0;
49434;PMS5003;35306;53.458;-1.990;2022-07-10T15:30:23;3;1;
49434;PMS5003;35306;53.458;-1.990;2022-07-10T15:32:50;1;1;
49434;PMS5003;35306;53.458;-1.990;2022-07-10T15:35:18;1;0;
49434;PMS5003;35306;53.458;-1.990;2022-07-10T15:37:46;1;1;
49434;PMS5003;35306;53.458;-1.990;2022-07-10T15:40:13;0;0;
49434;PMS5003;35306;53.458;-1.990;2022-07-10T15:42:41;0;0;
49434;PMS5003;35306;53.458;-1.990;2022-07-10T15:45:09;1;1;
49434;PMS5003;35306;53.458;-1.990;2022-07-10T15:47:37;1;1;
49434;PMS5003;35306;53.458;-1.990;2022-07-10T15:50:05;0;0;
49434;PMS5003;35306;53.458;-1.990;2022-07-10T15:52:32;2;1;
49434;PMS5003;35306;53.458;-1.990;2022-07-10T15:54:59;1;1;
49434;PMS5003;35306;53.458;-1.990;2022-07-10T15:57:27;1;1;
49434;PMS5003;35306;53.458;-1.990;2022-07-10T15:59:55;0;0;
49434;PMS5003;35306;53.458;-1.990;2022-07-10T16:02:22;1;1;
49434;PMS5003;35306;53.458;-1.990;2022-07-10T16:04:52;3;1;
49434;PMS5003;35306;53.458;-1.990;2022-07-10T16:07:21;0;0;
49434;PMS5003;35306;53.458;-1.990;2022-07-10T16:09:49;1;1;
49434;PMS5003;35306;53.458;-1.990;2022-07-10T16:12:16;1;1;
49434;PMS5003;35306;53.458;-1.990;2022-07-10T16:14:44;1;1;
49434;PMS5003;35306;53.458;-1.990;2022-07-10T16:17:11;1;1;
49434;PMS5003;35306;53.458;-1.990;2022-07-10T16:19:39;3;2;
49434;PMS5003;35306;53.458;-1.990;2022-07-10T16:22:06;1;1;
49434;PMS5003;35306;53.458;-1.990;2022-07-10T16:24:34;0;0;
49434;PMS5003;35306;53.458;-1.990;2022-07-10T16:27:02;0;0;
49434;PMS5003;35306;53.458;-1.990;2022-07-10T16:29:29;1;1;
49434;PMS5003;35306;53.458;-1.990;2022-07-10T16:31:57;1;1;
49434;PMS5003;35306;53.458;-1.990;2022-07-10T16:34:24;0;0;
49434;PMS5003;35306;53.458;-1.990;2022-07-10T16:36:52;2;2;
49434;PMS5003;35306;53.458;-1.990;2022-07-10T16:39:20;1;1;
49434;PMS5003;35306;53.458;-1.990;2022-07-10T16:41:52;1;1;
49434;PMS5003;35306;53.458;-1.990;2022-07-10T16:44:22;0;0;
49434;PMS5003;35306;53.458;-1.990;2022-07-10T16:46:49;1;1;
49434;PMS5003;35306;53.458;-1.990;2022-07-10T16:49:17;1;1;